Time;durP1;ratioP1;P1;durP2;ratioP2;P2;SDS_P1;SDS_P2;PMS_P1;PMS_P2;Temp;Humidity;BMP_temperature;BMP_pressure;BME280_temperature;BME280_humidity;BME280_pressure;Samples;Min_cycle;Max_cycle;Signal;HPM_P1;HPM_P2
2024/04/18 00:02:37;;;;;;;16.77;15.00;;;3.90;99.90;;;4.60;100.00;97397.22;11043514;26;20361;-63
2024/04/18 00:07:42;;;;;;;15.97;14.47;;;4.10;99.90;;;4.64;100.00;97391.63;11039272;26;20311;-62
2024/04/18 00:12:48;;;;;;;17.00;15.47;;;4.10;99.90;;;4.73;100.00;97387.22;11038550;26;20260;-62
2024/04/18 00:17:56;;;;;;;17.33;15.63;;;4.20;99.90;;;4.77;100.00;97386.66;11035872;26;20817;-62
2024/04/18 00:23:02;;;;;;;16.80;15.20;;;4.20;99.90;;;4.79;100.00;97391.84;11045962;26;20757;-62
2024/04/18 00:28:07;;;;;;;17.83;16.13;;;4.20;99.90;;;4.83;100.00;97394.69;11037624;26;20264;-63
2024/04/18 00:33:15;;;;;;;16.67;15.17;;;4.20;99.90;;;4.87;100.00;97393.28;11044210;26;20299;-62
2024/04/18 00:38:21;;;;;;;16.07;14.37;;;4.30;99.90;;;4.92;100.00;97392.81;11038555;26;20264;-62
2024/04/18 00:43:26;;;;;;;16.90;15.30;;;4.30;99.90;;;4.90;100.00;97393.47;11035299;26;20611;-61
2024/04/18 00:48:35;;;;;;;17.97;16.17;;;4.30;99.90;;;5.00;100.00;97395.88;11035373;26;20256;-64
2024/04/18 00:53:41;;;;;;;18.40;16.50;;;4.30;99.90;;;5.09;100.00;97398.19;11044885;26;20596;-63
2024/04/18 00:58:47;;;;;;;17.57;15.90;;;4.30;99.90;;;5.06;100.00;97392.91;11041599;26;20256;-64
2024/04/18 01:03:57;;;;;;;15.77;14.07;;;4.40;99.90;;;5.06;100.00;97395.44;11035564;26;20734;-62
2024/04/18 01:09:03;;;;;;;14.80;13.30;;;4.30;99.90;;;5.03;100.00;97400.28;11043936;26;20307;-62
2024/04/18 01:14:12;;;;;;;15.47;13.97;;;4.30;99.90;;;4.92;100.00;97402.97;11031659;26;20748;-62
2024/04/18 01:19:22;;;;;;;13.90;12.50;;;4.30;99.90;;;5.07;100.00;97402.28;11044601;26;20260;-64
2024/04/18 01:24:28;;;;;;;14.87;13.47;;;4.40;99.90;;;5.08;100.00;97409.09;11041461;26;20787;-62
2024/04/18 01:29:36;;;;;;;14.80;13.30;;;4.40;99.90;;;5.04;100.00;97407.13;11030431;26;20347;-62
2024/04/18 01:34:41;;;;;;;15.40;13.83;;;4.30;99.90;;;5.08;100.00;97409.09;11042512;26;20613;-62
2024/04/18 01:39:48;;;;;;;16.37;14.67;;;4.40;99.90;;;5.11;100.00;97409.31;11041574;26;20308;-63
2024/04/18 01:44:56;;;;;;;16.33;14.63;;;4.40;99.90;;;5.13;100.00;97415.38;11037923;26;20768;-62
2024/04/18 01:50:02;;;;;;;16.03;14.43;;;4.40;99.90;;;5.12;100.00;97414.50;11042320;26;20330;-62
2024/04/18 01:55:09;;;;;;;16.00;14.13;;;4.40;99.90;;;5.03;100.00;97421.41;11042373;26;20290;-64
2024/04/18 02:00:18;;;;;;;15.97;14.37;;;4.40;99.90;;;5.00;100.00;97416.13;11033763;26;20253;-62
2024/04/18 02:05:23;;;;;;;16.00;14.37;;;4.40;99.90;;;5.00;100.00;97415.25;11046324;26;20256;-61
2024/04/18 02:10:29;;;;;;;16.30;14.60;;;4.50;99.90;;;4.94;100.00;97421.66;11035299;26;20257;-64
2024/04/18 02:15:37;;;;;;;16.50;14.83;;;4.40;99.90;;;5.14;100.00;97424.72;11039078;26;20252;-63
2024/04/18 02:20:42;;;;;;;16.40;14.70;;;4.50;99.90;;;5.09;100.00;97421.84;11039861;26;20787;-63
2024/04/18 02:25:48;;;;;;;17.77;15.97;;;4.50;99.90;;;5.16;100.00;97418.13;11032549;26;20300;-61
2024/04/18 02:30:56;;;;;;;16.87;15.13;;;4.50;99.90;;;5.11;100.00;97429.56;11035277;26;20303;-64
2024/04/18 02:36:01;;;;;;;17.30;15.60;;;4.50;99.90;;;5.12;100.00;97427.16;11028748;26;20256;-62
2024/04/18 02:41:08;;;;;;;18.03;16.13;;;4.60;99.90;;;5.17;100.00;97428.34;11039457;26;20257;-63
2024/04/18 02:46:17;;;;;;;16.27;14.73;;;4.60;99.90;;;5.13;100.00;97431.44;11044618;26;20264;-62
2024/04/18 02:51:22;;;;;;;17.47;15.67;;;4.60;99.90;;;5.17;100.00;97423.28;11038356;26;20256;-62
2024/04/18 02:56:28;;;;;;;17.37;15.70;;;4.60;99.90;;;5.27;100.00;97427.34;11026562;26;20303;-63
2024/04/18 03:01:37;;;;;;;17.00;15.30;;;4.60;99.90;;;5.25;100.00;97422.94;11030927;26;20253;-63
2024/04/18 03:06:42;;;;;;;16.43;14.77;;;4.60;99.90;;;5.15;100.00;97429.00;11046813;26;20264;-63
2024/04/18 03:11:48;;;;;;;18.47;16.67;;;4.60;99.90;;;5.13;100.00;97423.84;11035256;26;20254;-64
2024/04/18 03:16:56;;;;;;;17.07;15.37;;;4.60;99.90;;;5.17;100.00;97424.94;11047474;26;20751;-63
2024/04/18 03:22:02;;;;;;;17.90;16.10;;;4.60;99.90;;;5.30;100.00;97419.97;11042405;26;20300;-61
2024/04/18 03:27:08;;;;;;;18.67;16.67;;;4.60;99.90;;;5.21;100.00;97426.94;11045233;26;20794;-65
2024/04/18 03:32:18;;;;;;;18.30;16.47;;;4.70;99.90;;;5.23;100.00;97435.50;11031547;26;20249;-62
2024/04/18 03:37:24;;;;;;;18.87;16.93;;;4.70;99.90;;;5.26;100.00;97438.25;11043696;26;20248;-64
2024/04/18 03:42:29;;;;;;;18.63;16.67;;;4.70;99.90;;;5.20;100.00;97435.28;11040123;26;20258;-61
2024/04/18 03:47:37;;;;;;;18.23;16.03;;;4.60;99.90;;;5.18;100.00;97444.44;11043418;26;20256;-62
2024/04/18 03:52:43;;;;;;;17.57;15.77;;;4.60;99.90;;;5.31;100.00;97443.63;11037942;26;20256;-62
2024/04/18 03:57:49;;;;;;;18.17;15.60;;;4.70;99.90;;;5.33;100.00;97455.66;11035047;26;20265;-64
2024/04/18 04:02:57;;;;;;;18.53;16.63;;;4.70;99.90;;;5.32;100.00;97456.44;11076267;21;20844;-63
2024/04/18 04:08:05;;;;;;;19.07;17.00;;;4.70;99.90;;;5.30;100.00;97455.44;11133296;26;20286;-63
2024/04/18 04:13:10;;;;;;;18.97;16.97;;;4.60;99.90;;;5.48;100.00;97465.09;11126009;26;20248;-63
2024/04/18 04:18:19;;;;;;;19.70;17.70;;;4.90;99.90;;;5.37;100.00;97467.75;11123709;26;20252;-63
2024/04/18 04:23:25;;;;;;;18.70;16.70;;;4.80;99.90;;;5.46;100.00;97480.19;11127772;26;20251;-63
2024/04/18 04:28:30;;;;;;;17.87;16.13;;;4.80;99.90;;;5.44;100.00;97481.75;11117219;26;20263;-63
2024/04/18 04:33:38;;;;;;;16.77;15.27;;;4.80;99.90;;;5.39;100.00;97486.50;11126856;26;20252;-63
2024/04/18 04:38:44;;;;;;;16.10;14.70;;;4.80;99.90;;;5.25;100.00;97497.28;11117850;26;20296;-64
2024/04/18 04:43:49;;;;;;;14.83;13.47;;;4.60;99.90;;;5.18;100.00;97502.72;11122201;26;20252;-62
2024/04/18 04:48:59;;;;;;;16.03;14.47;;;4.60;99.90;;;5.24;100.00;97508.22;11118975;26;20300;-63
2024/04/18 04:54:05;;;;;;;16.87;15.10;;;4.60;99.90;;;5.24;100.00;97513.28;11123952;26;20352;-63
2024/04/18 04:59:11;;;;;;;16.63;15.10;;;4.70;99.90;;;5.31;100.00;97520.53;11125352;26;20286;-62
2024/04/18 05:04:20;;;;;;;24.03;20.50;;;4.70;99.90;;;5.26;100.00;97520.97;11119391;26;20256;-62
2024/04/18 05:09:26;;;;;;;15.20;13.70;;;4.70;99.90;;;5.29;100.00;97527.13;11116025;26;20255;-61
2024/04/18 05:14:31;;;;;;;15.57;14.10;;;4.70;99.90;;;5.38;100.00;97532.88;11122084;26;20271;-63
2024/04/18 05:19:40;;;;;;;14.20;12.80;;;4.80;99.90;;;5.41;100.00;97538.16;11124074;26;20689;-60
2024/04/18 05:24:45;;;;;;;14.03;12.83;;;4.80;99.90;;;5.46;100.00;97545.19;11115836;26;20260;-64
2024/04/18 05:35:15;;;;;;;13.10;11.87;;;4.80;99.90;;;5.42;100.00;97554.25;11115062;26;20305;-60
2024/04/18 05:40:21;;;;;;;14.23;12.93;;;4.80;99.90;;;5.39;100.00;97562.50;11118491;26;20615;-62
2024/04/18 05:45:26;;;;;;;13.87;12.50;;;4.80;99.90;;;5.41;100.00;97568.56;11118928;26;20259;-62
2024/04/18 05:50:34;;;;;;;13.83;12.63;;;4.80;99.90;;;5.47;100.00;97577.41;11111112;26;20298;-63
2024/04/18 05:55:43;;;;;;;13.83;12.50;;;4.90;99.90;;;5.47;100.00;97578.28;11128436;26;20293;-63
2024/04/18 06:00:49;;;;;;;13.17;11.97;;;4.90;99.90;;;5.52;100.00;97592.16;11117652;26;20313;-60
2024/04/18 06:05:59;;;;;;;14.10;12.80;;;4.90;99.90;;;5.65;100.00;97593.91;11121568;26;20260;-64
2024/04/18 06:11:05;;;;;;;13.60;12.33;;;5.00;99.90;;;5.62;100.00;97603.84;11119703;26;20303;-64
2024/04/18 06:16:10;;;;;;;13.80;12.60;;;5.00;99.90;;;5.55;100.00;97599.09;11121366;26;20251;-62
2024/04/18 06:21:18;;;;;;;13.73;12.53;;;4.90;99.90;;;5.66;100.00;97605.81;11122776;26;20822;-63
2024/04/18 06:26:24;;;;;;;14.17;12.77;;;5.00;99.90;;;5.72;100.00;97612.97;11120708;26;20306;-64
2024/04/18 06:31:29;;;;;;;13.80;12.50;;;5.10;99.90;;;5.74;100.00;97624.13;11108754;26;20303;-64
2024/04/18 06:36:37;;;;;;;13.23;11.97;;;5.10;99.90;;;5.92;100.00;97627.06;11126054;26;20378;-63
2024/04/18 06:41:43;;;;;;;13.03;11.93;;;5.20;99.90;;;5.85;100.00;97638.44;11126130;26;20271;-63
2024/04/18 06:46:49;;;;;;;12.90;11.90;;;5.20;99.90;;;5.80;100.00;97642.28;11129904;26;20294;-63
2024/04/18 06:52:09;;;;;;;13.50;12.37;;;5.20;99.90;;;5.93;100.00;97641.53;11127277;26;20286;-62
2024/04/18 06:57:14;;;;;;;13.07;11.87;;;5.30;99.90;;;5.94;100.00;97656.00;11126148;26;20775;-61
2024/04/18 07:02:20;;;;;;;12.60;11.43;;;5.30;99.90;;;6.00;100.00;97658.97;11135979;26;20294;-63
2024/04/18 07:07:28;;;;;;;11.37;10.37;;;5.30;99.90;;;6.04;100.00;97661.84;11135230;26;20247;-62
2024/04/18 07:12:33;;;;;;;12.07;11.07;;;5.40;99.90;;;6.11;100.00;97669.91;11120737;26;20248;-63
2024/04/18 07:17:39;;;;;;;13.20;12.10;;;5.30;99.90;;;6.28;100.00;97657.59;11129210;26;20263;-61
2024/04/18 07:22:47;;;;;;;14.63;13.30;;;5.50;99.90;;;6.63;100.00;97666.78;11127893;26;20251;-63
2024/04/18 07:27:53;;;;;;;13.67;12.47;;;5.70;99.90;;;6.63;100.00;97674.41;11128132;26;20264;-61
2024/04/18 07:32:58;;;;;;;20.47;18.67;;;5.70;99.90;;;6.61;100.00;97683.59;11132248;26;20247;-63
2024/04/18 07:38:07;;;;;;;14.13;12.83;;;5.80;99.90;;;6.80;100.00;97688.28;11129968;26;20614;-63
2024/04/18 07:43:13;;;;;;;14.97;13.53;;;5.90;99.90;;;7.26;100.00;97682.88;11128624;26;20284;-62
2024/04/18 07:48:18;;;;;;;12.60;11.60;;;6.40;99.90;;;8.30;100.00;97694.75;11127271;26;20260;-62
2024/04/18 07:53:27;;;;;;;11.57;10.57;;;7.40;99.90;;;8.77;95.78;97700.25;11139931;26;20247;-63
2024/04/18 07:58:32;;;;;;;11.53;10.57;;;7.90;99.90;;;9.16;96.50;97700.03;11124943;26;20259;-63
2024/04/18 08:03:39;;;;;;;9.30;8.60;;;8.40;99.90;;;9.54;92.51;97696.31;11127991;26;20256;-62
2024/04/18 08:09:04;;;;;;;8.43;7.73;;;8.60;99.90;;;9.00;84.04;97713.53;11128387;26;20373;-62
2024/04/18 08:14:14;;;;;;;8.60;7.83;;;7.90;99.90;;;8.41;83.10;97714.13;11128548;26;20818;-62
2024/04/18 08:19:26;;;;;;;7.50;6.80;;;7.40;99.90;;;7.71;85.19;97720.66;11133491;26;20255;-60
2024/04/18 08:24:35;;;;;;;8.80;8.10;;;7.00;99.90;;;7.90;88.14;97732.91;11133082;26;20260;-63
2024/04/18 08:29:41;;;;;;;8.17;7.57;;;7.20;99.90;;;8.39;93.62;97741.19;11125692;26;20382;-62
2024/04/18 08:34:46;;;;;;;10.13;9.30;;;7.40;99.90;;;8.44;89.88;97750.00;11127979;26;20727;-61
2024/04/18 08:39:55;;;;;;;9.57;8.77;;;7.60;99.90;;;8.11;96.24;97752.09;11128973;26;20299;-63
2024/04/18 08:45:01;;;;;;;11.00;10.10;;;7.20;99.90;;;8.24;100.00;97753.78;11125737;26;20251;-62
2024/04/18 08:50:09;;;;;;;10.97;10.07;;;7.30;99.90;;;8.32;100.00;97752.59;11128072;26;20267;-62
2024/04/18 08:55:17;;;;;;;11.43;10.30;;;7.50;99.90;;;8.98;100.00;97753.31;11125242;26;20260;-62
2024/04/18 09:00:22;;;;;;;9.43;8.67;;;8.30;99.90;;;9.50;97.68;97753.94;11124319;26;20248;-62
2024/04/18 09:05:28;;;;;;;9.13;8.33;;;8.80;99.90;;;10.06;92.68;97758.91;11126771;26;20256;-63
2024/04/18 09:10:36;;;;;;;9.88;8.95;;;9.50;99.90;;;10.45;84.69;97756.88;11121994;26;20263;-60
2024/04/18 09:15:42;;;;;;;8.38;7.60;;;9.90;99.90;;;10.63;83.42;97753.56;11119944;26;20252;-60
2024/04/18 09:20:48;;;;;;;8.55;7.75;;;9.90;99.90;;;10.76;79.66;97756.00;11119590;26;20302;-61
2024/04/18 09:26:00;;;;;;;9.40;8.52;;;10.10;99.90;;;10.55;80.76;97765.91;11117964;26;20692;-61
2024/04/18 09:31:07;;;;;;;10.55;9.65;;;9.70;99.90;;;10.70;79.42;97771.91;11118419;26;20695;-62
2024/04/18 09:36:15;;;;;;;10.30;9.60;;;9.60;99.90;;;10.08;83.72;97774.31;11116004;26;20266;-62
2024/04/18 09:41:29;;;;;;;11.38;10.43;;;9.30;99.90;;;9.55;90.17;97789.91;11121070;26;20310;-60
2024/04/18 09:46:35;;;;;;;11.68;10.50;;;8.80;99.90;;;9.46;94.17;97788.56;11118636;26;20302;-59
2024/04/18 09:51:42;;;;;;;10.63;9.73;;;8.60;99.90;;;9.43;93.34;97783.28;11109906;26;20298;-58
2024/04/18 09:56:52;;;;;;;10.23;9.30;;;8.50;99.90;;;9.29;92.02;97783.25;11115603;26;20255;-59
2024/04/18 10:01:59;;;;;;;10.93;9.82;;;8.60;99.90;;;9.67;96.75;97780.44;11144274;21;20296;-61
2024/04/18 10:07:05;;;;;;;10.75;9.80;;;9.10;99.90;;;9.86;94.07;97777.28;11190347;26;20262;-63
2024/04/18 10:12:13;;;;;;;9.73;8.75;;;9.20;99.90;;;10.02;90.25;97779.06;11192148;26;20391;-64
2024/04/18 10:17:27;;;;;;;9.23;8.38;;;9.40;99.90;;;9.88;85.21;97789.34;11203751;26;20253;-62
2024/04/18 10:22:32;;;;;;;8.40;7.70;;;9.20;99.90;;;9.50;84.07;97796.41;11220933;26;20305;-61
2024/04/18 10:27:54;;;;;;;7.63;7.03;;;8.80;99.90;;;9.30;83.20;97796.09;11214864;26;21145;-62
2024/04/18 10:33:00;;;;;;;8.35;7.60;;;8.70;99.90;;;9.74;81.03;97795.31;11223639;26;20296;-61
2024/04/18 10:38:06;;;;;;;7.50;6.82;;;9.40;99.90;;;9.62;74.57;97809.91;11212334;26;21170;-65
2024/04/18 10:43:18;;;;;;;7.57;6.97;;;9.10;99.90;;;9.07;82.92;97822.75;11207942;26;20247;-60
2024/04/18 10:48:25;;;;;;;9.07;8.17;;;8.60;99.90;;;8.55;88.36;97838.16;11235364;26;20312;-60
2024/04/18 10:53:31;;;;;;;10.30;9.40;;;8.10;99.90;;;8.38;91.84;97845.44;11223106;26;20263;-62
2024/04/18 10:58:40;;;;;;;10.53;9.53;;;7.60;99.90;;;8.28;95.79;97849.06;11216715;26;20250;-62
2024/04/18 11:03:46;;;;;;;16.47;11.67;;;7.40;99.90;;;8.33;94.95;97847.72;11230565;26;20293;-62
2024/04/18 11:08:51;;;;;;;11.43;10.23;;;7.50;99.90;;;8.21;95.89;97841.81;11218242;26;20328;-63
2024/04/18 11:14:00;;;;;;;10.00;8.70;;;7.40;99.90;;;8.39;97.88;97835.41;11225612;26;20266;-61
2024/04/18 11:19:07;;;;;;;8.77;7.97;;;7.90;99.90;;;8.73;96.66;97835.03;11201938;26;20513;-62
2024/04/18 11:24:13;;;;;;;17.23;14.90;;;8.40;99.90;;;9.00;95.42;97829.09;11210800;26;20305;-59
2024/04/18 11:29:21;;;;;;;7.97;7.27;;;8.60;99.90;;;9.18;91.28;97837.00;11221600;26;20725;-61
2024/04/18 11:34:26;;;;;;;7.70;6.97;;;8.80;99.90;;;9.12;92.43;97821.34;11236737;26;20253;-62
2024/04/18 11:39:32;;;;;;;6.27;5.67;;;8.60;99.90;;;9.61;90.44;97828.56;11206125;26;20640;-62
2024/04/18 11:44:40;;;;;;;6.97;6.47;;;9.30;99.90;;;9.64;89.46;97834.75;11212971;26;20283;-62
2024/04/18 11:49:47;;;;;;;5.63;5.23;;;9.10;99.90;;;9.35;88.20;97840.59;11232454;26;20756;-62
2024/04/18 11:54:52;;;;;;;4.70;4.30;;;8.70;99.90;;;9.21;89.57;97838.88;11220402;26;20665;-63
2024/04/18 12:00:02;;;;;;;4.33;4.03;;;8.70;99.90;;;8.97;88.22;97846.75;11244214;26;20292;-61
2024/04/18 12:05:09;;;;;;;3.88;3.60;;;8.60;99.90;;;9.47;84.27;97846.47;11219458;26;20594;-61
2024/04/18 12:10:14;;;;;;;6.10;4.72;;;8.80;99.90;;;9.87;83.91;97848.88;11238057;26;20827;-61
2024/04/18 12:15:23;;;;;;;3.67;3.47;;;9.20;99.90;;;10.08;82.49;97841.59;11222775;26;20335;-62
2024/04/18 12:20:29;;;;;;;4.57;4.28;;;9.50;99.90;;;10.51;83.90;97845.78;11216747;26;20643;-61
2024/04/18 12:25:34;;;;;;;3.60;3.38;;;10.00;99.90;;;10.16;79.83;97857.38;11212988;26;20301;-61
2024/04/18 12:30:42;;;;;;;3.95;3.15;;;9.60;99.90;;;9.94;76.63;97870.53;11222906;26;20248;-62
2024/04/18 12:35:48;;;;;;;3.17;2.97;;;9.40;99.90;;;10.00;76.71;97872.56;11213964;26;20376;-61
2024/04/18 12:40:53;;;;;;;3.47;3.00;;;9.50;99.90;;;9.85;74.45;97870.88;11221946;26;20250;-62
2024/04/18 12:46:02;;;;;;;3.88;3.60;;;9.40;99.90;;;9.92;76.65;97865.31;11236111;26;20588;-62
2024/04/18 12:51:22;;;;;;;3.40;3.08;;;9.40;99.90;;;9.80;72.97;97866.28;11225247;26;20721;-60
2024/04/18 12:56:27;;;;;;;4.15;3.80;;;9.30;99.90;;;9.64;72.40;97857.72;11237557;26;20408;-62
2024/04/18 13:01:35;;;;;;;3.28;3.08;;;9.30;99.90;;;9.68;71.26;97861.31;11220353;26;20258;-62
2024/04/18 13:06:41;;;;;;;3.13;2.92;;;9.30;99.90;;;9.80;70.83;97856.06;11238694;26;20254;-60
2024/04/18 13:11:47;;;;;;;2.78;2.60;;;9.40;99.90;;;10.67;68.58;97845.81;11215818;26;20259;-61
2024/04/18 13:16:55;;;;;;;3.40;3.10;;;10.20;99.90;;;10.77;68.10;97842.13;11238083;26;20596;-61
2024/04/18 13:22:01;;;;;;;2.65;2.53;;;10.50;99.90;;;10.80;70.79;97845.72;11218459;26;20812;-62
2024/04/18 13:27:07;;;;;;;2.75;2.28;;;10.40;99.90;;;10.85;67.58;97834.91;11235411;26;20246;-61
2024/04/18 13:32:15;;;;;;;3.03;2.83;;;10.30;99.90;;;10.77;68.40;97843.00;11218037;26;20250;-60
2024/04/18 13:37:20;;;;;;;2.50;2.30;;;10.20;99.90;;;10.79;66.26;97832.88;11234570;26;20589;-62
2024/04/18 13:42:26;;;;;;;3.17;2.95;;;10.00;99.90;;;11.03;67.70;97838.44;11210999;26;20261;-59
2024/04/18 13:47:34;;;;;;;3.20;2.97;;;10.20;99.90;;;11.18;69.17;97835.84;11224430;26;20302;-61
2024/04/18 13:52:40;;;;;;;3.63;3.33;;;10.50;99.90;;;11.22;69.68;97841.22;11177398;26;20258;-62
2024/04/18 13:57:45;;;;;;;2.40;2.30;;;10.60;99.90;;;11.13;69.79;97858.63;11195325;26;20557;-59
2024/04/18 14:02:53;;;;;;;2.70;2.50;;;10.50;99.90;;;10.92;67.12;97870.22;11194744;26;20287;-62
2024/04/18 14:07:59;;;;;;;1.90;1.80;;;10.20;99.90;;;10.55;67.90;97869.03;11200828;26;20292;-62
2024/04/18 14:13:05;;;;;;;2.38;2.13;;;9.90;99.90;;;10.51;67.40;97879.00;11198535;26;20255;-60
2024/04/18 14:23:35;;;;;;;2.53;2.33;;;9.60;99.90;;;9.67;75.06;97880.84;11173108;26;20295;-64
2024/04/18 14:28:40;;;;;;;2.25;2.15;;;9.40;99.90;;;10.00;76.79;97877.69;11167747;26;20709;-62
2024/04/18 14:33:48;;;;;;;2.58;2.38;;;9.60;99.90;;;10.18;73.14;97877.88;11150690;26;20262;-64
2024/04/18 14:38:54;;;;;;;2.35;2.15;;;9.80;99.90;;;9.72;76.22;97880.25;11150946;26;20305;-61
2024/04/18 14:44:00;;;;;;;2.75;2.30;;;9.40;99.90;;;9.67;80.98;97885.06;11200138;26;20309;-62
2024/04/18 14:49:12;;;;;;;2.30;2.20;;;9.30;99.90;;;9.47;84.78;97887.28;11178411;26;20254;-65
2024/04/18 14:54:18;;;;;;;2.45;2.30;;;9.20;99.90;;;9.29;85.25;97893.78;11188101;26;20305;-63
2024/04/18 14:59:24;;;;;;;4.20;3.90;;;9.10;99.90;;;9.48;85.12;97898.38;11196263;26;20805;-63
2024/04/18 15:04:32;;;;;;;2.73;2.30;;;9.20;99.90;;;9.47;76.76;97892.41;11136419;26;22105;-63
2024/04/18 15:09:38;;;;;;;2.60;2.20;;;9.20;99.90;;;9.58;77.20;97887.06;11182105;26;20256;-61
2024/04/18 15:14:46;;;;;;;2.08;1.98;;;9.30;99.90;;;9.65;73.56;97901.97;11171205;26;20247;-62
2024/04/18 15:19:57;;;;;;;2.10;2.00;;;9.40;99.90;;;9.60;68.09;97905.91;11185084;26;20262;-62
2024/04/18 15:25:03;;;;;;;1.95;1.80;;;9.30;99.90;;;9.59;68.27;97911.81;11186468;26;20257;-63
2024/04/18 15:30:10;;;;;;;2.00;1.90;;;9.30;99.90;;;9.66;67.79;97913.94;11183558;26;20299;-62
2024/04/18 15:35:18;;;;;;;2.50;2.30;;;9.40;99.90;;;9.56;68.37;97919.28;11164806;26;20457;-66
2024/04/18 15:40:23;;;;;;;2.40;2.20;;;9.30;99.90;;;9.56;67.25;97919.28;11178770;26;20252;-62
2024/04/18 15:45:29;;;;;;;2.22;2.03;;;9.20;99.90;;;9.61;64.86;97916.19;11190376;26;20330;-61
2024/04/18 15:50:37;;;;;;;2.08;1.98;;;9.30;99.90;;;9.60;65.33;97923.75;11199272;26;20634;-61
2024/04/18 15:55:43;;;;;;;2.28;2.00;;;9.30;99.90;;;9.67;66.16;97934.44;11188608;26;20254;-62
2024/04/18 16:00:48;;;;;;;1.52;1.50;;;9.30;99.90;;;9.75;66.48;97934.91;11189164;26;20631;-64
2024/04/18 16:05:57;;;;;;;2.20;2.10;;;9.40;99.90;;;9.86;65.90;97941.53;11122660;21;20263;-63
2024/04/18 16:11:03;;;;;;;2.00;1.90;;;9.40;99.90;;;10.22;66.57;97943.69;11099981;26;20256;-63
2024/04/18 16:16:09;;;;;;;2.13;1.98;;;9.70;99.90;;;10.15;64.58;97935.63;11106889;26;20306;-61
2024/04/18 16:21:17;;;;;;;2.05;1.95;;;9.80;99.90;;;10.13;66.38;97949.13;11103165;26;20306;-60
2024/04/18 16:26:23;;;;;;;2.00;1.90;;;9.60;99.90;;;10.10;70.23;97952.38;11105203;26;20259;-61
2024/04/18 16:31:28;;;;;;;1.90;1.80;;;9.60;99.90;;;10.10;69.88;97956.59;11087891;26;20295;-62
2024/04/18 16:36:41;;;;;;;2.05;1.95;;;9.50;99.90;;;9.99;69.13;97960.19;11105306;26;20286;-62
2024/04/18 16:41:51;;;;;;;2.00;1.83;;;9.30;99.90;;;9.84;68.09;97966.13;11105537;26;20264;-62
2024/04/18 16:46:56;;;;;;;2.30;2.10;;;9.20;99.90;;;9.71;70.56;97963.59;11093769;26;20303;-64
2024/04/18 16:52:05;;;;;;;2.60;2.50;;;9.10;99.90;;;9.89;72.87;97961.28;11090457;26;20256;-65
2024/04/18 16:57:13;;;;;;;2.28;2.17;;;9.20;99.90;;;9.77;73.88;97963.97;11104752;26;20286;-61
2024/04/18 17:02:19;;;;;;;2.53;2.42;;;9.20;99.90;;;9.90;74.35;97974.16;11101362;26;20311;-59
2024/04/18 17:07:27;;;;;;;2.60;2.40;;;9.20;99.90;;;9.84;73.75;97966.13;11106815;26;20314;-61
2024/04/18 17:12:32;;;;;;;3.13;2.90;;;9.20;99.90;;;9.68;70.83;97981.28;11102391;26;20302;-59
2024/04/18 17:17:38;;;;;;;2.15;1.77;;;9.10;99.90;;;9.66;71.72;97983.72;11109026;26;20255;-61
2024/04/18 17:22:46;;;;;;;2.63;2.45;;;9.10;99.90;;;9.58;72.64;97976.38;11085240;26;20325;-63
2024/04/18 17:27:52;;;;;;;2.55;2.35;;;9.00;99.90;;;9.45;72.33;97993.47;11082678;26;20260;-62
2024/04/18 17:32:57;;;;;;;2.30;2.20;;;8.80;99.90;;;9.42;73.64;98005.16;11072129;26;20255;-62
2024/04/18 17:38:06;;;;;;;2.53;2.42;;;8.70;99.90;;;9.33;72.81;98005.44;11101839;26;20302;-64
2024/04/18 17:43:11;;;;;;;2.38;2.17;;;8.70;99.90;;;9.20;73.90;98018.19;11083713;26;20298;-63
2024/04/18 17:48:17;;;;;;;2.90;2.70;;;8.50;99.90;;;9.14;74.06;98033.97;11083336;26;20307;-63
2024/04/18 17:53:25;;;;;;;2.75;2.55;;;8.40;99.90;;;9.14;75.14;98040.72;11085895;26;20251;-63
2024/04/18 17:58:31;;;;;;;3.40;3.10;;;8.50;99.90;;;9.10;76.56;98057.50;11085988;26;20331;-65
2024/04/18 18:03:36;;;;;;;2.72;2.63;;;8.40;99.90;;;9.06;76.89;98054.66;11086571;26;21061;-62
2024/04/18 18:08:44;;;;;;;3.25;3.05;;;8.40;99.90;;;8.92;77.66;98058.81;11085543;26;20655;-63
2024/04/18 18:13:50;;;;;;;3.33;3.03;;;8.20;99.90;;;8.76;78.89;98052.72;11084932;26;20252;-64
2024/04/18 18:18:58;;;;;;;4.15;3.85;;;8.10;99.90;;;8.60;79.65;98060.09;11080504;26;20350;-62
2024/04/18 18:24:07;;;;;;;4.60;4.20;;;7.90;99.90;;;8.47;81.26;98060.94;11086357;26;20279;-64
2024/04/18 18:29:12;;;;;;;4.13;3.80;;;7.70;99.90;;;8.31;82.58;98070.81;11086238;26;20608;-64
2024/04/18 18:34:18;;;;;;;5.32;4.93;;;7.60;99.90;;;8.15;83.03;98080.69;11091710;26;20302;-61
2024/04/18 18:39:28;;;;;;;4.97;4.47;;;7.40;99.90;;;8.06;84.88;98097.09;11095203;26;20390;-62
2024/04/18 18:44:34;;;;;;;5.70;5.20;;;7.30;99.90;;;7.93;85.40;98111.41;11093990;26;20293;-61
2024/04/18 18:49:39;;;;;;;4.60;4.20;;;7.10;99.90;;;7.82;86.26;98110.66;11093992;26;20247;-59
2024/04/18 18:54:47;;;;;;;4.07;3.83;;;7.00;99.90;;;7.73;87.57;98121.03;11103161;26;20832;-60
2024/04/18 18:59:53;;;;;;;4.73;4.07;;;6.90;99.90;;;7.54;88.98;98126.44;11086740;26;20862;-62
2024/04/18 19:04:59;;;;;;;4.47;4.17;;;6.80;99.90;;;7.43;90.01;98128.19;11091700;26;20720;-61
2024/04/18 19:10:08;;;;;;;4.13;3.80;;;6.60;99.90;;;7.35;90.90;98130.94;11092438;26;20248;-63
2024/04/18 19:15:15;;;;;;;5.10;4.70;;;6.50;99.90;;;7.19;92.00;98140.00;11102066;26;20319;-62
2024/04/18 19:20:21;;;;;;;9.03;8.17;;;6.30;99.90;;;6.97;92.67;98137.50;11099774;26;20735;-63
2024/04/18 19:25:29;;;;;;;14.03;12.83;;;6.10;99.90;;;6.87;93.18;98149.41;11086517;26;20280;-62
2024/04/18 19:30:35;;;;;;;10.77;9.77;;;6.00;99.90;;;6.73;94.51;98146.69;11080796;26;20310;-62
2024/04/18 19:35:44;;;;;;;8.33;7.60;;;6.00;99.90;;;6.63;95.13;98154.38;11102586;26;20294;-59
2024/04/18 19:40:53;;;;;;;25.43;17.33;;;5.90;99.90;;;6.58;96.12;98165.84;11104994;26;20260;-62
2024/04/18 19:46:01;;;;;;;25.23;15.93;;;5.80;99.90;;;6.59;96.63;98167.63;11085789;26;20248;-63
2024/04/18 19:51:07;;;;;;;24.67;12.30;;;5.80;99.90;;;6.66;96.98;98167.31;11095666;26;20264;-63
2024/04/18 19:56:15;;;;;;;12.40;7.13;;;5.90;99.90;;;6.65;97.09;98170.63;11087103;26;20344;-63
2024/04/18 20:01:20;;;;;;;12.27;7.37;;;5.90;99.90;;;6.67;97.43;98181.78;11096482;26;20263;-64
2024/04/18 20:06:26;;;;;;;4.80;4.30;;;6.00;99.90;;;6.74;96.96;98176.41;11093430;26;20303;-62
2024/04/18 20:11:34;;;;;;;5.00;4.60;;;6.00;99.90;;;6.72;96.76;98172.88;11100817;26;20314;-62
2024/04/18 20:16:44;;;;;;;10.87;7.73;;;6.00;99.90;;;6.66;97.74;98169.84;11095578;26;20298;-63
2024/04/18 20:21:49;;;;;;;13.80;9.60;;;6.00;99.90;;;6.64;98.08;98168.88;11088423;26;20610;-61
2024/04/18 20:26:58;;;;;;;12.30;7.53;;;6.00;99.90;;;6.67;99.30;98163.13;11098305;26;20252;-62
2024/04/18 20:32:03;;;;;;;8.77;7.87;;;6.10;99.90;;;6.67;99.21;98166.56;11081996;26;20793;-62
2024/04/18 20:37:09;;;;;;;6.80;6.20;;;6.10;99.90;;;6.79;99.65;98170.81;11086753;26;20275;-61
2024/04/18 20:42:17;;;;;;;8.67;7.93;;;6.20;99.90;;;6.81;99.82;98181.94;11091671;26;20295;-65
2024/04/18 20:47:22;;;;;;;7.93;7.33;;;6.20;99.90;;;6.81;99.70;98180.31;11096961;26;20368;-64
2024/04/18 20:52:28;;;;;;;10.73;9.80;;;6.20;99.90;;;6.81;99.39;98176.88;11092843;26;20307;-62
2024/04/18 20:57:36;;;;;;;8.50;7.70;;;6.20;99.90;;;6.81;99.74;98185.41;11099113;26;20252;-62
2024/04/18 21:02:41;;;;;;;7.40;6.70;;;6.20;99.90;;;6.79;99.76;98180.97;11083730;26;20732;-62
2024/04/18 21:07:47;;;;;;;7.23;6.67;;;6.20;99.90;;;6.76;99.52;98174.88;11100901;26;20606;-62
2024/04/18 21:12:55;;;;;;;6.73;6.13;;;6.10;99.90;;;6.73;100.00;98177.19;11100167;26;20300;-60
2024/04/18 21:18:01;;;;;;;6.93;6.33;;;6.00;99.90;;;6.69;99.75;98172.63;11097389;26;20251;-61
2024/04/18 21:23:07;;;;;;;6.60;6.00;;;6.00;99.90;;;6.66;100.00;98177.47;11098547;26;20282;-63
2024/04/18 21:28:15;;;;;;;6.40;5.80;;;6.00;99.90;;;6.66;100.00;98179.13;11097445;26;20580;-62
2024/04/18 21:33:21;;;;;;;6.10;5.60;;;5.90;99.90;;;6.58;100.00;98188.72;11107264;26;20256;-61